Time;durP1;ratioP1;P1;durP2;ratioP2;P2;SDS_P1;SDS_P2;PMS_P1;PMS_P2;Temp;Humidity;BMP_temperature;BMP_pressure;BME280_temperature;BME280_humidity;BME280_pressure;Samples;Min_cycle;Max_cycle;Signal;HPM_P1;HPM_P2
2022/01/16 00:01:17;;;;;;;;;;;2.80;99.90;;;;;;5131696;27;19949;-66
2022/01/16 00:06:27;;;;;;;;;;;2.70;99.90;;;;;;5133179;27;19929;-65
2022/01/16 00:08:53;;;;;;;;;;;2.60;99.90;;;;;;5134000;27;20017;-66
2022/01/16 00:11:18;;;;;;;;;;;2.60;99.90;;;;;;5133381;27;19971;-65
2022/01/16 00:13:44;;;;;;;;;;;2.50;99.90;;;;;;5133904;27;19924;-69
2022/01/16 00:16:13;;;;;;;;;;;2.50;99.90;;;;;;5133233;27;20360;-66
2022/01/16 00:18:54;;;;;;;;;;;2.50;99.90;;;;;;5134002;27;20292;-65
2022/01/16 00:21:21;;;;;;;;;;;2.50;99.90;;;;;;5133091;27;19929;-66
2022/01/16 00:23:47;;;;;;;;;;;2.70;99.90;;;;;;5132683;27;20356;-65
2022/01/16 00:26:13;;;;;;;;;;;2.50;99.90;;;;;;5132476;27;19923;-65
2022/01/16 00:28:39;;;;;;;;;;;2.40;99.90;;;;;;5133902;27;19950;-67
2022/01/16 00:31:04;;;;;;;;;;;2.50;99.90;;;;;;5132542;27;19927;-67
2022/01/16 00:33:30;;;;;;;;;;;2.60;99.90;;;;;;5132929;27;19923;-65
2022/01/16 00:35:55;;;;;;;;;;;2.40;99.90;;;;;;5133430;27;19928;-67
2022/01/16 00:38:21;;;;;;;;;;;2.40;99.90;;;;;;5131708;27;19927;-65
2022/01/16 00:40:47;;;;;;;;;;;2.40;99.90;;;;;;5132263;27;19931;-65
2022/01/16 00:43:13;;;;;;;;;;;2.30;99.90;;;;;;5131985;27;19924;-66
2022/01/16 00:45:39;;;;;;;;;;;2.30;99.90;;;;;;5132079;27;20018;-66
2022/01/16 00:48:05;;;;;;;;;;;2.30;99.90;;;;;;5131454;27;20014;-66
2022/01/16 00:50:31;;;;;;;;;;;2.30;99.90;;;;;;5133667;27;19971;-66
2022/01/16 00:52:56;;;;;;;;;;;2.20;99.90;;;;;;5132013;27;20344;-66
2022/01/16 00:55:22;;;;;;;;;;;2.20;99.90;;;;;;5115311;27;19971;-65
2022/01/16 00:57:47;;;;;;;;;;;2.10;99.90;;;;;;5133445;27;19931;-65
2022/01/16 01:00:13;;;;;;;;;;;2.10;99.90;;;;;;5114350;27;19931;-66
2022/01/16 01:02:39;;;;;;;;;;;2.20;99.90;;;;;;5132382;27;19923;-68
2022/01/16 01:05:05;;;;;;;;;;;2.40;99.90;;;;;;5132951;27;19927;-66
2022/01/16 01:07:31;;;;;;;;;;;2.20;99.90;;;;;;5133313;27;19931;-66
2022/01/16 01:09:56;;;;;;;;;;;2.30;99.90;;;;;;5131640;27;19923;-66
2022/01/16 01:12:52;;;;;;;;;;;2.50;99.90;;;;;;5132218;27;19930;-65
2022/01/16 01:15:10;;;;;;;;;;;2.20;99.90;;;;;;5116527;27;19924;-64
2022/01/16 01:17:44;;;;;;;;;;;2.20;99.90;;;;;;5133122;27;20416;-65
2022/01/16 01:20:12;;;;;;;;;;;2.20;99.90;;;;;;5131925;28;19989;-66
2022/01/16 01:22:37;;;;;;;;;;;2.20;99.90;;;;;;5114944;28;19931;-64
2022/01/16 01:25:03;;;;;;;;;;;2.20;99.90;;;;;;5132523;28;19923;-65
2022/01/16 01:27:33;;;;;;;;;;;2.20;99.90;;;;;;5113627;28;19931;-67
2022/01/16 01:30:04;;;;;;;;;;;2.20;99.90;;;;;;5131395;28;19923;-66
2022/01/16 01:32:32;;;;;;;;;;;2.20;99.90;;;;;;5133071;28;19931;-66
2022/01/16 01:34:57;;;;;;;;;;;2.20;99.90;;;;;;5132645;28;19946;-69
2022/01/16 01:37:23;;;;;;;;;;;2.20;99.90;;;;;;5132997;28;19923;-65
2022/01/16 01:39:49;;;;;;;;;;;2.30;99.90;;;;;;5132979;28;19977;-65
2022/01/16 01:42:15;;;;;;;;;;;2.20;99.90;;;;;;5131334;28;20010;-66
2022/01/16 01:52:57;;;;;;;;;;;2.30;99.90;;;;;;5137139;27;20006;-66
2022/01/16 01:55:24;;;;;;;;;;;2.20;99.90;;;;;;5136954;27;19927;-65
2022/01/16 01:57:50;;;;;;;;;;;2.20;99.90;;;;;;5118567;27;19967;-66
2022/01/16 02:00:18;;;;;;;;;;;2.20;99.90;;;;;;5135157;27;20019;-65
2022/01/16 02:05:33;;;;;;;;;;;2.30;99.90;;;;;;5135655;27;19973;-65
2022/01/16 02:07:59;;;;;;;;;;;2.30;99.90;;;;;;5135377;27;20392;-64
2022/01/16 02:10:25;;;;;;;;;;;2.30;99.90;;;;;;5135075;27;19924;-65
2022/01/16 02:12:57;;;;;;;;;;;2.30;99.90;;;;;;5136467;27;19923;-67
2022/01/16 02:31:47;;;;;;;;;;;2.20;99.90;;;;;;5136352;27;19931;-65
2022/01/16 02:37:06;;;;;;;;;;;2.30;99.90;;;;;;5136184;27;20304;-66
2022/01/16 02:39:35;;;;;;;;;;;2.30;99.90;;;;;;5135116;27;19923;-66
2022/01/16 02:42:00;;;;;;;;;;;2.20;99.90;;;;;;5134884;27;19924;-65
2022/01/16 02:46:52;;;;;;;;;;;2.30;99.90;;;;;;5135615;27;20112;-65
2022/01/16 02:49:31;;;;;;;;;;;2.20;99.90;;;;;;5156153;27;19923;-65
2022/01/16 02:51:59;;;;;;;;;;;2.20;99.90;;;;;;5138219;27;20002;-65
2022/01/16 02:54:27;;;;;;;;;;;2.20;99.90;;;;;;5120842;27;19923;-65
2022/01/16 02:56:53;;;;;;;;;;;2.20;99.90;;;;;;5156397;27;20013;-65
2022/01/16 02:59:18;;;;;;;;;;;2.40;99.90;;;;;;5156083;27;20026;-66
2022/01/16 03:01:45;;;;;;;;;;;2.10;99.90;;;;;;5155159;27;20030;-65
2022/01/16 03:04:11;;;;;;;;;;;2.10;99.90;;;;;;5137884;27;20333;-65
2022/01/16 03:06:36;;;;;;;;;;;2.50;99.90;;;;;;5137721;27;19945;-66
2022/01/16 03:09:06;;;;;;;;;;;2.10;99.90;;;;;;5120874;27;20394;-66
2022/01/16 03:11:35;;;;;;;;;;;2.10;99.90;;;;;;5155745;27;19923;-66
2022/01/16 03:14:05;;;;;;;;;;;2.10;99.90;;;;;;5155934;27;19923;-66
2022/01/16 03:16:31;;;;;;;;;;;2.20;99.90;;;;;;5155414;27;20406;-65
2022/01/16 03:24:28;;;;;;;;;;;2.30;99.90;;;;;;5136958;27;19923;-65
2022/01/16 03:26:57;;;;;;;;;;;2.20;99.90;;;;;;5136806;27;19979;-66
2022/01/16 03:29:27;;;;;;;;;;;2.20;99.90;;;;;;5155430;27;19962;-66
2022/01/16 03:31:53;;;;;;;;;;;2.20;99.90;;;;;;5155717;27;19930;-65
2022/01/16 03:34:19;;;;;;;;;;;2.20;99.90;;;;;;5136990;27;20287;-67
2022/01/16 03:36:44;;;;;;;;;;;2.20;99.90;;;;;;5155671;27;20014;-66
2022/01/16 03:39:10;;;;;;;;;;;2.20;99.90;;;;;;5137315;27;19946;-66
2022/01/16 03:41:37;;;;;;;;;;;2.20;99.90;;;;;;5136857;27;19923;-66
2022/01/16 03:44:03;;;;;;;;;;;2.20;99.90;;;;;;5119961;27;19972;-65
2022/01/16 03:46:35;;;;;;;;;;;2.20;99.90;;;;;;5136474;27;19931;-67
2022/01/16 03:49:05;;;;;;;;;;;2.20;99.90;;;;;;5136356;27;19971;-65
2022/01/16 03:51:31;;;;;;;;;;;2.20;99.90;;;;;;5155023;27;19923;-65
2022/01/16 03:53:57;;;;;;;;;;;2.30;99.90;;;;;;5136478;27;20291;-64
2022/01/16 03:56:22;;;;;;;;;;;2.30;99.90;;;;;;5154820;27;20318;-65
2022/01/16 03:58:48;;;;;;;;;;;2.30;99.90;;;;;;5155142;27;19927;-67
2022/01/16 04:01:13;;;;;;;;;;;2.30;99.90;;;;;;5155261;27;19930;-65
2022/01/16 04:03:39;;;;;;;;;;;2.30;99.90;;;;;;5154672;27;20383;-65
2022/01/16 04:06:04;;;;;;;;;;;2.30;99.90;;;;;;5136320;27;19923;-66
2022/01/16 04:08:30;;;;;;;;;;;2.50;99.90;;;;;;5119196;27;19923;-65
2022/01/16 04:10:56;;;;;;;;;;;2.40;99.90;;;;;;5154871;27;20344;-66
2022/01/16 04:13:21;;;;;;;;;;;2.40;99.90;;;;;;5154328;27;19934;-66
2022/01/16 04:15:47;;;;;;;;;;;2.40;99.90;;;;;;5136644;27;20363;-65
2022/01/16 04:18:13;;;;;;;;;;;2.40;99.90;;;;;;5154977;27;19927;-65
2022/01/16 04:20:39;;;;;;;;;;;2.30;99.90;;;;;;5154302;27;19923;-65
2022/01/16 04:23:05;;;;;;;;;;;2.40;99.90;;;;;;5119029;27;20314;-66
2022/01/16 04:25:31;;;;;;;;;;;2.40;99.90;;;;;;5135963;27;20260;-66
2022/01/16 04:27:56;;;;;;;;;;;2.40;99.90;;;;;;5154666;27;19930;-64
2022/01/16 04:30:22;;;;;;;;;;;2.40;99.90;;;;;;5154207;27;19930;-66
2022/01/16 04:32:48;;;;;;;;;;;2.60;99.90;;;;;;5118885;27;19996;-65
2022/01/16 04:35:13;;;;;;;;;;;2.70;99.90;;;;;;5136145;27;20410;-65
2022/01/16 04:37:39;;;;;;;;;;;2.40;99.90;;;;;;5136059;27;20300;-66
2022/01/16 04:40:05;;;;;;;;;;;2.50;99.90;;;;;;5136200;27;19968;-66
2022/01/16 04:45:15;;;;;;;;;;;2.50;99.90;;;;;;5121447;27;19974;-66
2022/01/16 04:47:42;;;;;;;;;;;2.50;99.90;;;;;;5153418;27;20275;-66
2022/01/16 04:50:08;;;;;;;;;;;2.50;99.90;;;;;;5154323;27;19923;-64
2022/01/16 04:52:33;;;;;;;;;;;2.50;99.90;;;;;;5153952;27;19929;-66
2022/01/16 04:54:59;;;;;;;;;;;2.70;99.90;;;;;;5154256;27;19930;-66
2022/01/16 04:57:25;;;;;;;;;;;2.60;99.90;;;;;;5135634;27;20022;-65
2022/01/16 04:59:50;;;;;;;;;;;2.60;99.90;;;;;;5153975;27;19931;-66
2022/01/16 05:02:16;;;;;;;;;;;2.60;99.90;;;;;;5154189;27;20017;-66
2022/01/16 05:04:41;;;;;;;;;;;2.60;99.90;;;;;;5153120;27;20003;-65
2022/01/16 05:07:07;;;;;;;;;;;2.60;99.90;;;;;;5135488;27;19923;-64
2022/01/16 05:09:32;;;;;;;;;;;2.60;99.90;;;;;;5153645;27;20303;-65
2022/01/16 05:12:01;;;;;;;;;;;2.60;99.90;;;;;;5153789;27;19934;-66
2022/01/16 05:17:11;;;;;;;;;;;2.70;99.90;;;;;;5135585;27;19930;-65
2022/01/16 05:19:37;;;;;;;;;;;2.70;99.90;;;;;;5134997;27;19923;-66
2022/01/16 05:22:02;;;;;;;;;;;2.70;99.90;;;;;;5153835;27;19923;-66
2022/01/16 05:24:32;;;;;;;;;;;2.80;99.90;;;;;;5135044;27;19975;-65
2022/01/16 05:26:58;;;;;;;;;;;2.70;99.90;;;;;;5140300;27;19934;-65
2022/01/16 05:29:23;;;;;;;;;;;2.80;99.90;;;;;;5139530;27;19923;-64
2022/01/16 05:31:49;;;;;;;;;;;2.70;99.90;;;;;;5139654;27;19926;-66
2022/01/16 05:34:18;;;;;;;;;;;2.80;99.90;;;;;;5139548;27;19949;-65
2022/01/16 05:36:44;;;;;;;;;;;2.80;99.90;;;;;;5157590;27;19923;-67
2022/01/16 05:39:10;;;;;;;;;;;2.80;99.90;;;;;;5139656;27;19930;-64
2022/01/16 05:41:36;;;;;;;;;;;2.80;99.90;;;;;;5139263;27;19930;-65
2022/01/16 05:44:01;;;;;;;;;;;2.80;99.90;;;;;;5157907;27;19923;-65
2022/01/16 05:46:27;;;;;;;;;;;2.80;99.90;;;;;;5139306;27;19930;-67
2022/01/16 05:48:52;;;;;;;;;;;2.80;99.90;;;;;;5138471;27;19923;-66
2022/01/16 05:51:18;;;;;;;;;;;2.90;99.90;;;;;;5122340;27;19927;-65
2022/01/16 05:53:46;;;;;;;;;;;2.80;99.90;;;;;;5122010;27;20394;-66
2022/01/16 05:56:12;;;;;;;;;;;2.90;99.90;;;;;;5157627;27;19923;-66
2022/01/16 05:58:39;;;;;;;;;;;2.90;99.90;;;;;;5138713;27;19927;-66
2022/01/16 06:01:04;;;;;;;;;;;2.90;99.90;;;;;;5139098;27;19923;-66
2022/01/16 06:03:30;;;;;;;;;;;2.90;99.90;;;;;;5157453;27;19968;-66
2022/01/16 06:05:55;;;;;;;;;;;2.90;99.90;;;;;;5138829;27;20271;-66
2022/01/16 06:08:21;;;;;;;;;;;2.90;99.90;;;;;;5138779;27;20359;-66
2022/01/16 06:10:47;;;;;;;;;;;2.90;99.90;;;;;;5138466;27;19923;-67
2022/01/16 06:13:12;;;;;;;;;;;2.90;99.90;;;;;;5138583;27;19923;-66
2022/01/16 06:15:40;;;;;;;;;;;3.00;99.90;;;;;;5156740;27;19980;-67
2022/01/16 06:18:06;;;;;;;;;;;3.00;99.90;;;;;;5138405;27;19966;-65
2022/01/16 06:20:32;;;;;;;;;;;3.00;99.90;;;;;;5121709;27;19923;-65
2022/01/16 06:22:58;;;;;;;;;;;3.00;99.90;;;;;;5138405;27;19949;-66
2022/01/16 06:25:24;;;;;;;;;;;3.10;99.90;;;;;;5121273;27;20364;-67
2022/01/16 06:27:50;;;;;;;;;;;3.00;99.90;;;;;;5138070;27;19923;-67
2022/01/16 06:30:15;;;;;;;;;;;3.00;99.90;;;;;;5138639;27;19945;-65
2022/01/16 06:32:41;;;;;;;;;;;3.10;99.90;;;;;;5156533;27;20359;-66
2022/01/16 06:35:10;;;;;;;;;;;3.10;99.90;;;;;;5156935;27;20359;-65
2022/01/16 06:37:36;;;;;;;;;;;3.10;99.90;;;;;;5138370;27;19972;-68
2022/01/16 06:40:02;;;;;;;;;;;3.10;99.90;;;;;;5138248;27;20333;-65
2022/01/16 06:42:28;;;;;;;;;;;3.10;99.90;;;;;;5156795;27;19927;-66
2022/01/16 06:44:56;;;;;;;;;;;3.10;99.90;;;;;;5120331;27;19929;-68
2022/01/16 06:47:22;;;;;;;;;;;3.20;99.90;;;;;;5134308;27;19930;-65
2022/01/16 06:49:50;;;;;;;;;;;3.20;99.90;;;;;;5117820;27;19970;-65
2022/01/16 06:52:15;;;;;;;;;;;3.20;99.90;;;;;;5134778;27;20352;-66
2022/01/16 06:54:41;;;;;;;;;;;3.30;99.90;;;;;;5134457;27;20043;-66
2022/01/16 06:57:08;;;;;;;;;;;3.30;99.90;;;;;;5134265;27;19923;-66
2022/01/16 06:59:35;;;;;;;;;;;3.40;99.90;;;;;;5117862;27;19930;-68
2022/01/16 07:02:05;;;;;;;;;;;3.40;99.90;;;;;;5134450;27;19975;-66
2022/01/16 07:04:30;;;;;;;;;;;3.40;99.90;;;;;;5134071;27;19923;-66
2022/01/16 07:06:56;;;;;;;;;;;3.40;99.90;;;;;;5133346;27;19935;-67
2022/01/16 07:09:22;;;;;;;;;;;3.40;99.90;;;;;;5135546;27;19923;-64
2022/01/16 07:11:47;;;;;;;;;;;3.50;99.90;;;;;;5100030;27;19930;-65
2022/01/16 07:14:13;;;;;;;;;;;3.50;99.90;;;;;;5135142;27;19924;-66
2022/01/16 07:16:38;;;;;;;;;;;3.50;99.90;;;;;;5116790;27;19923;-68
2022/01/16 07:19:04;;;;;;;;;;;3.50;99.90;;;;;;5133728;27;19924;-66
2022/01/16 07:21:30;;;;;;;;;;;3.70;99.90;;;;;;5117181;27;20348;-66
2022/01/16 07:23:55;;;;;;;;;;;3.60;99.90;;;;;;5133923;27;20014;-65
2022/01/16 07:26:21;;;;;;;;;;;3.60;99.90;;;;;;5133794;27;19974;-66
2022/01/16 07:28:47;;;;;;;;;;;3.60;99.90;;;;;;5099751;27;19927;-66
2022/01/16 07:31:13;;;;;;;;;;;3.60;99.90;;;;;;5135215;27;19923;-66
2022/01/16 07:33:38;;;;;;;;;;;3.70;99.90;;;;;;5133907;27;19927;-67
2022/01/16 07:36:04;;;;;;;;;;;3.70;99.90;;;;;;5116232;27;19935;-65
2022/01/16 07:38:30;;;;;;;;;;;3.70;99.90;;;;;;5116653;27;19923;-66
2022/01/16 07:40:56;;;;;;;;;;;3.70;99.90;;;;;;5115998;27;20014;-66
2022/01/16 07:43:21;;;;;;;;;;;3.70;99.90;;;;;;5134597;27;19924;-66
2022/01/16 07:45:47;;;;;;;;;;;3.80;99.90;;;;;;5133087;27;19923;-65
2022/01/16 07:48:12;;;;;;;;;;;3.80;99.90;;;;;;5146487;27;19923;-66
2022/01/16 07:50:38;;;;;;;;;;;3.80;99.90;;;;;;5136702;27;19942;-65
2022/01/16 07:53:04;;;;;;;;;;;3.90;99.90;;;;;;5136228;27;19975;-65
2022/01/16 07:55:30;;;;;;;;;;;3.90;99.90;;;;;;5155126;27;19926;-68
2022/01/16 07:57:56;;;;;;;;;;;3.90;99.90;;;;;;5119135;27;19923;-67
2022/01/16 08:00:22;;;;;;;;;;;3.90;99.90;;;;;;5136074;27;20411;-66
2022/01/16 08:02:49;;;;;;;;;;;3.90;99.90;;;;;;5154795;27;19927;-67
2022/01/16 08:05:15;;;;;;;;;;;3.90;99.90;;;;;;5154300;27;20372;-65
2022/01/16 08:07:41;;;;;;;;;;;3.90;99.90;;;;;;5155184;27;19926;-66
2022/01/16 08:10:07;;;;;;;;;;;4.00;99.90;;;;;;5136327;27;19919;-65
2022/01/16 08:12:33;;;;;;;;;;;4.00;99.90;;;;;;5136556;27;19923;-66
2022/01/16 08:14:59;;;;;;;;;;;4.00;99.90;;;;;;5136120;27;20452;-66
2022/01/16 08:17:25;;;;;;;;;;;4.00;99.90;;;;;;5154787;27;19974;-69
2022/01/16 08:19:50;;;;;;;;;;;4.10;99.90;;;;;;5135810;27;20296;-69
2022/01/16 08:22:16;;;;;;;;;;;4.10;99.90;;;;;;5154579;27;19923;-65
2022/01/16 08:24:41;;;;;;;;;;;4.20;99.90;;;;;;5154435;27;19930;-65
2022/01/16 08:27:07;;;;;;;;;;;4.20;99.90;;;;;;5135533;27;20005;-65
2022/01/16 08:29:32;;;;;;;;;;;4.20;99.90;;;;;;5154506;27;20018;-64
2022/01/16 08:31:58;;;;;;;;;;;4.30;99.90;;;;;;5154202;27;20018;-66
2022/01/16 08:34:24;;;;;;;;;;;4.30;99.90;;;;;;5135478;27;19983;-66
2022/01/16 08:36:49;;;;;;;;;;;4.30;99.90;;;;;;5154232;27;19931;-65
2022/01/16 08:39:15;;;;;;;;;;;4.30;99.90;;;;;;5154068;27;19923;-66
2022/01/16 08:41:40;;;;;;;;;;;4.40;99.90;;;;;;5102029;27;20045;-66
2022/01/16 08:44:06;;;;;;;;;;;4.40;99.90;;;;;;5135509;27;19972;-66
2022/01/16 08:46:32;;;;;;;;;;;4.50;99.90;;;;;;5135482;27;19923;-67
2022/01/16 08:48:58;;;;;;;;;;;4.50;99.90;;;;;;5135199;27;19978;-66
2022/01/16 08:51:24;;;;;;;;;;;4.50;99.90;;;;;;5135795;27;19974;-66
2022/01/16 08:53:49;;;;;;;;;;;4.60;99.90;;;;;;5154016;27;20319;-66
2022/01/16 08:56:15;;;;;;;;;;;4.70;99.90;;;;;;5135555;27;20181;-67
2022/01/16 08:58:41;;;;;;;;;;;4.60;99.90;;;;;;5135782;27;20021;-66
2022/01/16 09:01:06;;;;;;;;;;;4.70;99.90;;;;;;5153008;27;20376;-68
2022/01/16 09:03:32;;;;;;;;;;;4.70;99.90;;;;;;5153601;27;19989;-65
2022/01/16 09:05:58;;;;;;;;;;;4.70;99.90;;;;;;5135201;27;19926;-67
2022/01/16 09:08:24;;;;;;;;;;;4.80;99.90;;;;;;5135413;27;20364;-67
2022/01/16 09:10:49;;;;;;;;;;;4.80;99.90;;;;;;5153914;27;19935;-66
2022/01/16 09:13:18;;;;;;;;;;;4.80;99.90;;;;;;5135167;27;20332;-67
2022/01/16 09:15:44;;;;;;;;;;;4.90;99.90;;;;;;5118315;27;19949;-65
2022/01/16 09:18:10;;;;;;;;;;;4.90;99.90;;;;;;5134955;27;19929;-65
2022/01/16 09:20:36;;;;;;;;;;;5.00;99.90;;;;;;5153810;27;20064;-67
2022/01/16 09:23:02;;;;;;;;;;;5.10;99.90;;;;;;5135066;27;19983;-65
2022/01/16 09:25:27;;;;;;;;;;;5.20;99.90;;;;;;5153953;27;20084;-67
2022/01/16 09:27:53;;;;;;;;;;;5.30;99.90;;;;;;5118226;27;19998;-68
2022/01/16 09:30:20;;;;;;;;;;;5.30;99.90;;;;;;5153217;27;19970;-66
2022/01/16 09:32:45;;;;;;;;;;;5.30;99.90;;;;;;5135410;27;19923;-66
2022/01/16 09:35:11;;;;;;;;;;;5.20;99.90;;;;;;5134553;27;19930;-65
2022/01/16 09:37:37;;;;;;;;;;;5.30;99.90;;;;;;5134883;27;19924;-65
2022/01/16 09:40:04;;;;;;;;;;;5.30;99.90;;;;;;5153317;27;19992;-67
2022/01/16 09:42:30;;;;;;;;;;;5.30;99.90;;;;;;5135052;27;19942;-66
2022/01/16 09:44:56;;;;;;;;;;;5.30;99.90;;;;;;5134955;27;19923;-65
2022/01/16 09:47:21;;;;;;;;;;;5.30;99.90;;;;;;5116974;27;19923;-65
2022/01/16 09:49:47;;;;;;;;;;;5.50;99.90;;;;;;5135154;27;19946;-66
2022/01/16 09:52:13;;;;;;;;;;;5.30;99.90;;;;;;5152683;27;19975;-65
2022/01/16 09:54:39;;;;;;;;;;;5.40;99.90;;;;;;5134702;27;19931;-65
2022/01/16 09:57:05;;;;;;;;;;;5.40;99.90;;;;;;5134389;27;19944;-66
2022/01/16 09:59:30;;;;;;;;;;;5.30;99.90;;;;;;5117009;27;19919;-67
2022/01/16 10:01:56;;;;;;;;;;;5.30;99.90;;;;;;5152925;27;20023;-66
2022/01/16 10:04:32;;;;;;;;;;;5.30;99.90;;;;;;5116746;27;19926;-67
2022/01/16 10:06:59;;;;;;;;;;;5.40;99.90;;;;;;5134538;27;19945;-65
2022/01/16 10:09:25;;;;;;;;;;;5.40;99.90;;;;;;5134256;27;20378;-66
2022/01/16 10:11:59;;;;;;;;;;;5.40;99.90;;;;;;5155486;27;19985;-65
2022/01/16 10:14:28;;;;;;;;;;;5.40;99.90;;;;;;5121233;27;20005;-67
2022/01/16 10:16:54;;;;;;;;;;;5.40;99.90;;;;;;5138791;27;20002;-66
2022/01/16 10:19:24;;;;;;;;;;;5.50;99.90;;;;;;5138100;27;19967;-66
2022/01/16 10:21:50;;;;;;;;;;;5.50;99.90;;;;;;5156976;27;19931;-67
2022/01/16 10:24:19;;;;;;;;;;;5.50;99.90;;;;;;5156704;27;19923;-67
2022/01/16 10:26:48;;;;;;;;;;;5.50;99.90;;;;;;5120979;27;20061;-66
2022/01/16 10:29:18;;;;;;;;;;;5.60;99.90;;;;;;5121632;27;19971;-67
2022/01/16 10:31:44;;;;;;;;;;;5.60;99.90;;;;;;5156713;27;19962;-65
2022/01/16 10:34:23;;;;;;;;;;;5.60;99.90;;;;;;5156499;27;19967;-66
2022/01/16 10:36:48;;;;;;;;;;;5.70;99.90;;;;;;5156892;27;19934;-65
2022/01/16 10:39:14;;;;;;;;;;;5.70;99.90;;;;;;5156271;27;20018;-66
2022/01/16 10:41:40;;;;;;;;;;;5.80;99.90;;;;;;5138240;27;20301;-68
2022/01/16 10:44:24;;;;;;;;;;;5.90;99.90;;;;;;5156750;27;19923;-65
2022/01/16 10:46:49;;;;;;;;;;;6.00;99.90;;;;;;5156817;27;20288;-67
2022/01/16 10:49:17;;;;;;;;;;;6.00;99.90;;;;;;5156147;27;19945;-67
2022/01/16 10:52:00;;;;;;;;;;;6.00;99.90;;;;;;5156394;27;19975;-67
2022/01/16 10:54:33;;;;;;;;;;;6.10;99.90;;;;;;5137628;27;20017;-66
2022/01/16 10:57:16;;;;;;;;;;;6.00;99.90;;;;;;5156354;27;19923;-66
2022/01/16 10:59:45;;;;;;;;;;;6.10;99.90;;;;;;5156350;27;19923;-66
2022/01/16 11:02:10;;;;;;;;;;;6.10;99.90;;;;;;5120670;27;19923;-66
2022/01/16 11:04:39;;;;;;;;;;;6.10;99.90;;;;;;5137381;27;19924;-65
2022/01/16 11:07:05;;;;;;;;;;;6.10;99.90;;;;;;5156160;27;19923;-66
2022/01/16 11:09:31;;;;;;;;;;;6.10;99.90;;;;;;5137341;27;20336;-66
2022/01/16 11:11:59;;;;;;;;;;;6.10;99.90;;;;;;5137468;27;19923;-64
2022/01/16 11:14:28;;;;;;;;;;;6.20;99.90;;;;;;5137403;27;19919;-65
2022/01/16 11:16:58;;;;;;;;;;;6.20;99.90;;;;;;5156025;27;19923;-66
2022/01/16 11:19:26;;;;;;;;;;;6.20;99.90;;;;;;5137289;27;19919;-65
2022/01/16 11:21:54;;;;;;;;;;;6.20;99.90;;;;;;5137590;27;20021;-65
2022/01/16 11:24:47;;;;;;;;;;;6.30;99.90;;;;;;5154780;27;19974;-66
2022/01/16 11:27:16;;;;;;;;;;;6.30;99.90;;;;;;5137118;27;20269;-65
2022/01/16 11:29:42;;;;;;;;;;;6.30;99.90;;;;;;5120411;27;19923;-67
2022/01/16 11:32:08;;;;;;;;;;;6.30;99.90;;;;;;5155762;27;19927;-65
2022/01/16 11:34:35;;;;;;;;;;;6.30;99.90;;;;;;5119822;27;20412;-66
2022/01/16 11:37:01;;;;;;;;;;;6.30;99.90;;;;;;5137035;27;20447;-65
2022/01/16 11:39:33;;;;;;;;;;;6.30;99.90;;;;;;5155225;27;19973;-65
2022/01/16 11:41:59;;;;;;;;;;;6.30;99.90;;;;;;5136569;27;19927;-66
2022/01/16 11:44:29;;;;;;;;;;;6.40;99.90;;;;;;5154960;27;19937;-66
2022/01/16 11:46:55;;;;;;;;;;;6.40;99.90;;;;;;5155320;27;19930;-66
2022/01/16 11:49:32;;;;;;;;;;;6.40;99.90;;;;;;5154470;27;19923;-66
2022/01/16 11:52:05;;;;;;;;;;;6.40;99.90;;;;;;5155283;27;20155;-65
2022/01/16 11:54:38;;;;;;;;;;;6.40;99.90;;;;;;5154847;27;19929;-64
2022/01/16 11:57:18;;;;;;;;;;;6.50;99.90;;;;;;5136908;27;20030;-66
2022/01/16 11:59:44;;;;;;;;;;;6.50;99.90;;;;;;5154405;27;19927;-65
2022/01/16 12:02:09;;;;;;;;;;;6.50;99.90;;;;;;5154998;27;19971;-64
2022/01/16 12:04:37;;;;;;;;;;;6.50;99.90;;;;;;5154491;27;20058;-67
2022/01/16 12:07:09;;;;;;;;;;;6.50;99.90;;;;;;5119362;27;19930;-66
2022/01/16 12:12:22;;;;;;;;;;;6.60;99.90;;;;;;5136835;27;20333;-68
2022/01/16 12:14:48;;;;;;;;;;;6.60;99.90;;;;;;5154567;27;19930;-67
2022/01/16 12:17:29;;;;;;;;;;;6.70;99.90;;;;;;5136269;27;19930;-68
2022/01/16 12:19:55;;;;;;;;;;;6.60;99.90;;;;;;5152416;27;19927;-67
2022/01/16 12:22:52;;;;;;;;;;;6.60;99.90;;;;;;5135464;27;20310;-71
2022/01/16 12:25:23;;;;;;;;;;;6.70;99.90;;;;;;5119198;27;19929;-67
2022/01/16 12:27:56;;;;;;;;;;;6.70;99.90;;;;;;5154376;27;19930;-66
2022/01/16 12:30:24;;;;;;;;;;;6.70;99.90;;;;;;5153570;27;19923;-66
2022/01/16 12:33:08;;;;;;;;;;;6.70;99.90;;;;;;5135543;27;19967;-66
2022/01/16 12:35:55;;;;;;;;;;;6.70;99.90;;;;;;5134823;27;19976;-68
2022/01/16 12:38:20;;;;;;;;;;;6.70;99.90;;;;;;5136229;27;19971;-65
2022/01/16 12:40:47;;;;;;;;;;;6.70;99.90;;;;;;5135432;27;19923;-68
2022/01/16 12:43:21;;;;;;;;;;;6.70;99.90;;;;;;5136016;27;20396;-74
2022/01/16 12:45:46;;;;;;;;;;;6.80;99.90;;;;;;5154134;27;20305;-69
2022/01/16 12:48:13;;;;;;;;;;;6.80;99.90;;;;;;5154288;27;19930;-68
2022/01/16 12:50:39;;;;;;;;;;;6.80;99.90;;;;;;5153815;27;19923;-68
2022/01/16 12:53:04;;;;;;;;;;;6.80;99.90;;;;;;5136018;27;20320;-69
2022/01/16 12:55:31;;;;;;;;;;;6.80;99.90;;;;;;5118611;27;19923;-67
2022/01/16 12:58:15;;;;;;;;;;;6.90;99.90;;;;;;5135633;27;19948;-69
2022/01/16 13:00:56;;;;;;;;;;;6.80;99.90;;;;;;5153403;27;19923;-67
2022/01/16 13:03:25;;;;;;;;;;;6.80;99.90;;;;;;5153979;27;19923;-68
2022/01/16 13:05:51;;;;;;;;;;;6.80;99.90;;;;;;5118093;27;19974;-66
2022/01/16 13:08:16;;;;;;;;;;;6.80;99.90;;;;;;5135522;27;19989;-67
2022/01/16 13:10:42;;;;;;;;;;;6.80;99.90;;;;;;5153334;27;19923;-67
2022/01/16 13:13:11;;;;;;;;;;;6.80;99.90;;;;;;5153958;27;19927;-67
2022/01/16 13:15:37;;;;;;;;;;;6.70;99.90;;;;;;5118002;27;19930;-69
2022/01/16 13:18:09;;;;;;;;;;;6.80;99.90;;;;;;5134956;27;20287;-66
2022/01/16 13:20:35;;;;;;;;;;;6.70;99.90;;;;;;5117509;27;19919;-68
2022/01/16 13:23:00;;;;;;;;;;;6.70;99.90;;;;;;5135105;27;20059;-67
2022/01/16 13:25:26;;;;;;;;;;;6.70;99.90;;;;;;5134736;27;20398;-68
2022/01/16 13:27:51;;;;;;;;;;;6.70;99.90;;;;;;5134326;27;19930;-68
2022/01/16 13:30:24;;;;;;;;;;;6.70;99.90;;;;;;5116815;27;19975;-67
2022/01/16 13:32:50;;;;;;;;;;;6.70;99.90;;;;;;5134535;27;19927;-67
2022/01/16 13:35:29;;;;;;;;;;;6.70;99.90;;;;;;5117988;27;19923;-68
2022/01/16 13:38:04;;;;;;;;;;;6.70;99.90;;;;;;5152747;27;20013;-67
2022/01/16 13:40:30;;;;;;;;;;;6.80;99.90;;;;;;5134467;27;19923;-67
2022/01/16 13:43:03;;;;;;;;;;;6.80;99.90;;;;;;5115872;27;20017;-68
2022/01/16 13:45:30;;;;;;;;;;;6.80;99.90;;;;;;5152704;27;19939;-67
2022/01/16 13:48:04;;;;;;;;;;;6.80;99.90;;;;;;5157088;27;19930;-66
2022/01/16 13:50:31;;;;;;;;;;;6.80;99.90;;;;;;5156535;27;19930;-69
2022/01/16 13:52:59;;;;;;;;;;;6.80;99.90;;;;;;5121378;27;19923;-67
2022/01/16 13:55:25;;;;;;;;;;;6.80;99.90;;;;;;5137294;27;20422;-68
2022/01/16 13:57:51;;;;;;;;;;;6.80;99.90;;;;;;5156791;27;19919;-67
2022/01/16 14:00:27;;;;;;;;;;;6.90;99.90;;;;;;5138443;27;19946;-67
2022/01/16 14:03:07;;;;;;;;;;;6.90;99.90;;;;;;5137835;27;20013;-67
2022/01/16 14:05:39;;;;;;;;;;;6.90;99.90;;;;;;5138226;27;19927;-68
2022/01/16 14:08:18;;;;;;;;;;;6.90;99.90;;;;;;5138653;27;19930;-67
2022/01/16 14:10:43;;;;;;;;;;;6.90;99.90;;;;;;5156225;27;19923;-69
2022/01/16 14:13:10;;;;;;;;;;;6.90;99.90;;;;;;5138014;27;20291;-69
2022/01/16 14:15:39;;;;;;;;;;;6.90;99.90;;;;;;5138531;27;19931;-68
2022/01/16 14:18:12;;;;;;;;;;;6.90;99.90;;;;;;5137577;27;20428;-69
2022/01/16 14:23:32;;;;;;;;;;;6.90;99.90;;;;;;5082838;27;20342;-68
2022/01/16 14:26:01;;;;;;;;;;;6.90;99.90;;;;;;5138137;27;19930;-68
2022/01/16 14:28:29;;;;;;;;;;;6.90;99.90;;;;;;5137827;27;19924;-67
2022/01/16 14:30:55;;;;;;;;;;;6.90;99.90;;;;;;5156384;27;19923;-68
2022/01/16 14:33:20;;;;;;;;;;;6.80;99.90;;;;;;5156183;27;19923;-69
2022/01/16 14:35:46;;;;;;;;;;;6.80;99.90;;;;;;5137460;27;19971;-68
2022/01/16 14:38:18;;;;;;;;;;;6.80;99.90;;;;;;5137777;27;20220;-68
2022/01/16 14:40:43;;;;;;;;;;;6.80;99.90;;;;;;5156520;27;19923;-67
2022/01/16 14:43:16;;;;;;;;;;;6.80;99.90;;;;;;5137927;27;19927;-69
2022/01/16 14:45:42;;;;;;;;;;;6.80;99.90;;;;;;5138282;27;19923;-68
2022/01/16 14:48:07;;;;;;;;;;;6.80;99.90;;;;;;5120574;27;20296;-67
2022/01/16 14:50:33;;;;;;;;;;;6.80;99.90;;;;;;5156208;27;20026;-68
2022/01/16 14:52:58;;;;;;;;;;;6.80;99.90;;;;;;5137785;27;19929;-68
2022/01/16 14:55:24;;;;;;;;;;;6.80;99.90;;;;;;5155899;27;19927;-69
2022/01/16 14:57:50;;;;;;;;;;;6.80;99.90;;;;;;5154517;27;19923;-69
2022/01/16 15:00:16;;;;;;;;;;;6.80;99.90;;;;;;5137448;27;19975;-69
2022/01/16 15:02:42;;;;;;;;;;;6.80;99.90;;;;;;5137941;27;19919;-72
2022/01/16 15:05:10;;;;;;;;;;;6.80;99.90;;;;;;5137249;27;19923;-70
2022/01/16 15:07:37;;;;;;;;;;;6.80;99.90;;;;;;5137424;27;20459;-68
2022/01/16 15:10:02;;;;;;;;;;;6.80;99.90;;;;;;5155356;27;20030;-67
2022/01/16 15:12:28;;;;;;;;;;;6.80;99.90;;;;;;5154926;27;19970;-70
2022/01/16 15:14:53;;;;;;;;;;;6.70;99.90;;;;;;5136832;27;19923;-71
2022/01/16 15:17:21;;;;;;;;;;;6.80;99.90;;;;;;5119990;27;20013;-69
2022/01/16 15:19:50;;;;;;;;;;;6.70;99.90;;;;;;5136469;27;19967;-70
2022/01/16 15:22:25;;;;;;;;;;;6.70;99.90;;;;;;5155145;27;19923;-68
2022/01/16 15:24:52;;;;;;;;;;;6.70;99.90;;;;;;5121475;27;19923;-70